createdAt,value
2019-03-08T00:00:50.309Z,72.21
2019-03-08T00:01:53.983Z,72.28
2019-03-08T00:02:56.664Z,72.79
2019-03-08T00:03:59.434Z,72.31
2019-03-08T00:05:02.386Z,72.31
2019-03-08T00:06:06.067Z,72.23
2019-03-08T00:07:09.218Z,71.28
2019-03-08T00:08:12.309Z,71.32
2019-03-08T00:09:15.013Z,71.91
2019-03-08T00:10:17.693Z,71.68
2019-03-08T00:11:20.482Z,71.68
2019-03-08T00:12:23.129Z,71.57
2019-03-08T00:13:25.779Z,71.54
2019-03-08T00:14:28.487Z,71.07
2019-03-08T00:15:31.202Z,71.18
2019-03-08T00:16:33.849Z,70.45
2019-03-08T00:17:55.249Z,70.45
2019-03-08T00:18:57.929Z,70.86
2019-03-08T00:20:03.088Z,71.24
2019-03-08T00:21:05.498Z,71.02
2019-03-08T00:22:08.807Z,71.77
2019-03-08T00:23:11.450Z,70.86
2019-03-08T00:24:14.499Z,70.80
2019-03-08T00:25:17.165Z,70.93
2019-03-08T00:26:20.138Z,70.83
2019-03-08T00:27:22.802Z,70.87
2019-03-08T00:28:25.871Z,70.60
2019-03-08T00:29:28.874Z,70.60
2019-03-08T00:30:32.012Z,69.80
2019-03-08T00:31:34.754Z,69.73
2019-03-08T00:32:37.393Z,70.36
2019-03-08T00:33:41.085Z,70.36
2019-03-08T00:34:44.101Z,70.08
2019-03-08T00:35:47.318Z,69.55
2019-03-08T00:36:50.097Z,69.24
2019-03-08T00:37:53.332Z,69.24
2019-03-08T00:38:56.668Z,69.47
2019-03-08T00:40:00.516Z,69.75
2019-03-08T00:41:03.650Z,69.73
2019-03-08T00:42:10.271Z,70.24
2019-03-08T00:43:13.299Z,69.22
2019-03-08T00:44:16.069Z,69.28
2019-03-08T00:45:18.764Z,70.11
2019-03-08T00:46:21.495Z,69.30
2019-03-08T00:47:24.207Z,69.65
2019-03-08T00:48:27.423Z,69.65
2019-03-08T00:49:30.213Z,69.55
2019-03-08T00:50:35.618Z,68.94
2019-03-08T00:51:38.328Z,68.94
2019-03-08T00:52:44.017Z,69.34
2019-03-08T00:53:49.283Z,69.34
2019-03-08T00:54:52.223Z,69.45
2019-03-08T00:55:54.917Z,68.88
2019-03-08T00:56:57.581Z,68.88
2019-03-08T00:58:00.323Z,67.97
2019-03-08T00:59:03.614Z,67.97
2019-03-08T01:00:06.309Z,68.32
2019-03-08T01:01:09.076Z,68.35
2019-03-08T01:02:11.883Z,68.98
2019-03-08T01:03:14.612Z,68.22
2019-03-08T01:04:17.407Z,68.76
2019-03-08T01:05:20.161Z,68.76
2019-03-08T01:06:23.323Z,68.51
2019-03-08T01:07:26.119Z,68.46
2019-03-08T01:08:29.004Z,68.46
2019-03-08T01:09:31.729Z,68.06
2019-03-08T01:10:34.523Z,68.62
2019-03-08T01:11:37.190Z,68.31
2019-03-08T01:12:40.201Z,68.31
2019-03-08T01:13:42.971Z,68.41
2019-03-08T01:14:50.219Z,68.76
2019-03-08T01:15:53.195Z,68.32
2019-03-08T01:16:56.007Z,68.32
2019-03-08T01:17:58.746Z,69.61
2019-03-08T01:19:01.505Z,69.61
2019-03-08T01:20:04.306Z,69.98
2019-03-08T01:21:07.662Z,69.25
2019-03-08T01:22:10.410Z,69.25
2019-03-08T01:23:13.662Z,69.37
2019-03-08T01:24:16.705Z,69.44
2019-03-08T01:25:21.400Z,70.16
2019-03-08T01:26:23.811Z,70.16
2019-03-08T01:27:26.556Z,69.31
2019-03-08T01:28:29.545Z,68.82
2019-03-08T01:29:32.270Z,69.21
2019-03-08T01:30:38.300Z,69.29
2019-03-08T01:31:41.100Z,69.29
2019-03-08T01:32:44.338Z,69.34
2019-03-08T01:33:47.392Z,69.36
2019-03-08T01:34:50.042Z,69.25
2019-03-08T01:35:52.801Z,69.72
2019-03-08T01:36:55.825Z,69.72
2019-03-08T01:37:58.590Z,69.93
2019-03-08T01:39:01.591Z,69.93
2019-03-08T01:40:04.234Z,69.23
2019-03-08T01:41:07.386Z,68.81
2019-03-08T01:42:11.243Z,69.44
2019-03-08T01:43:14.204Z,69.51
2019-03-08T01:44:16.855Z,69.25
2019-03-08T01:45:20.046Z,69.25
2019-03-08T01:46:22.755Z,68.37
2019-03-08T01:47:25.422Z,68.37
2019-03-08T01:48:28.186Z,68.73
2019-03-08T01:49:31.141Z,68.73
2019-03-08T01:50:33.862Z,68.86
2019-03-08T01:51:36.517Z,68.12
2019-03-08T01:52:39.144Z,68.12
2019-03-08T01:53:41.881Z,68.28
2019-03-08T01:54:44.685Z,68.28
2019-03-08T01:55:47.923Z,68.89
2019-03-08T01:56:50.618Z,69.33
2019-03-08T01:57:53.262Z,68.77
2019-03-08T01:58:55.924Z,69.12
2019-03-08T01:59:58.699Z,68.63
2019-03-08T02:01:01.572Z,68.14
2019-03-08T02:02:10.771Z,69.02
2019-03-08T02:03:13.512Z,68.28
2019-03-08T02:04:16.233Z,68.47
2019-03-08T02:05:19.402Z,67.95
2019-03-08T02:06:22.028Z,67.95
2019-03-08T02:07:24.696Z,68.55
2019-03-08T02:08:28.387Z,69.07
2019-03-08T02:09:31.272Z,70.27
2019-03-08T02:10:33.922Z,70.42
2019-03-08T02:11:36.702Z,70.65
2019-03-08T02:12:39.415Z,69.54
2019-03-08T02:13:42.139Z,69.75
2019-03-08T02:14:45.141Z,70.11
2019-03-08T02:15:47.761Z,70.11
2019-03-08T02:16:50.496Z,70.77
2019-03-08T02:17:53.267Z,70.69
2019-03-08T02:18:55.889Z,70.69
2019-03-08T02:20:01.204Z,70.03
2019-03-08T02:21:07.075Z,70.03
2019-03-08T02:22:09.130Z,69.20
2019-03-08T02:23:12.279Z,70.03
2019-03-08T02:24:14.991Z,69.77
2019-03-08T02:25:17.689Z,70.32
2019-03-08T02:26:23.138Z,70.19
2019-03-08T02:27:28.829Z,69.25
2019-03-08T02:28:34.082Z,69.26
2019-03-08T02:29:39.174Z,70.39
2019-03-08T02:30:44.635Z,69.74
2019-03-08T02:31:47.320Z,69.35
2019-03-08T02:32:56.001Z,69.09
2019-03-08T02:33:59.356Z,69.58
2019-03-08T02:35:02.048Z,69.09
2019-03-08T02:36:04.677Z,69.08
2019-03-08T02:37:07.818Z,69.43
2019-03-08T02:38:11.066Z,69.39
2019-03-08T02:39:15.411Z,69.84
2019-03-08T02:40:18.048Z,69.84
2019-03-08T02:41:20.760Z,70.17
2019-03-08T02:42:23.522Z,70.16
2019-03-08T02:43:26.650Z,70.16
2019-03-08T02:44:29.300Z,70.60
2019-03-08T02:45:32.619Z,71.47
2019-03-08T02:46:35.249Z,71.47
2019-03-08T02:47:37.941Z,71.73
2019-03-08T02:48:40.676Z,72.11
2019-03-08T02:49:43.294Z,72.59
2019-03-08T02:50:46.021Z,72.73
2019-03-08T02:51:49.354Z,72.68
2019-03-08T02:52:51.979Z,74.74
2019-03-08T02:53:54.588Z,74.02
2019-03-08T02:54:57.345Z,74.02
2019-03-08T02:56:03.868Z,74.52
2019-03-08T02:57:06.573Z,74.43
2019-03-08T02:58:11.713Z,73.87
2019-03-08T02:59:14.317Z,74.74
2019-03-08T03:00:16.928Z,74.75
2019-03-08T03:01:19.548Z,75.37
2019-03-08T03:02:22.493Z,74.78
2019-03-08T03:03:25.308Z,75.50
2019-03-08T03:04:28.093Z,75.50
2019-03-08T03:05:31.021Z,76.45
2019-03-08T03:06:33.729Z,76.87
2019-03-08T03:07:36.429Z,76.87
2019-03-08T03:08:39.109Z,75.97
2019-03-08T03:09:42.132Z,75.81
2019-03-08T03:10:44.892Z,75.65
2019-03-08T03:11:47.565Z,75.52
2019-03-08T03:12:50.294Z,75.52
2019-03-08T03:13:53.041Z,75.32
2019-03-08T03:14:55.800Z,76.34
2019-03-08T03:15:58.783Z,76.22
2019-03-08T03:17:01.412Z,76.38
2019-03-08T03:18:04.313Z,76.38
2019-03-08T03:19:06.966Z,76.92
2019-03-08T03:20:09.689Z,76.88
2019-03-08T03:21:13.877Z,76.66
2019-03-08T03:22:16.569Z,76.75
2019-03-08T03:23:19.213Z,76.75
2019-03-08T03:24:21.844Z,76.86
2019-03-08T03:25:25.411Z,77.41
2019-03-08T03:26:28.174Z,77.40
2019-03-08T03:27:31.103Z,77.40
2019-03-08T03:28:33.733Z,77.85
2019-03-08T03:29:36.362Z,78.79
2019-03-08T03:30:39.284Z,78.24
2019-03-08T03:31:42.485Z,79.12
2019-03-08T03:32:45.526Z,78.46
2019-03-08T03:33:48.586Z,78.61
2019-03-08T03:34:51.485Z,78.89
2019-03-08T03:35:54.579Z,78.62
2019-03-08T03:36:57.219Z,78.31
2019-03-08T03:37:59.965Z,78.31
2019-03-08T03:39:02.918Z,77.91
2019-03-08T03:40:05.894Z,78.94
2019-03-08T03:41:08.586Z,79.14
2019-03-08T03:42:11.285Z,78.48
2019-03-08T03:43:14.161Z,79.02
2019-03-08T03:44:17.171Z,79.02
2019-03-08T03:45:20.087Z,79.24
2019-03-08T03:46:22.732Z,79.24
2019-03-08T03:47:25.426Z,80.34
2019-03-08T03:48:28.114Z,80.95
2019-03-08T03:49:30.878Z,81.13
2019-03-08T03:50:33.658Z,81.79
2019-03-08T03:51:36.748Z,82.34
2019-03-08T03:52:39.876Z,83.72
2019-03-08T03:53:42.527Z,85.10
2019-03-08T03:54:45.200Z,86.54
2019-03-08T03:55:48.131Z,87.14
2019-03-08T03:56:50.763Z,87.78
2019-03-08T03:57:53.753Z,87.76
2019-03-08T03:58:57.496Z,88.27
2019-03-08T04:00:03.948Z,88.27
2019-03-08T04:01:23.467Z,88.31
2019-03-08T04:02:29.344Z,88.55
2019-03-08T04:03:36.129Z,88.24
2019-03-08T04:04:42.186Z,88.26
2019-03-08T04:05:46.645Z,89.55
2019-03-08T04:06:50.257Z,89.58
2019-03-08T04:07:53.338Z,88.66
2019-03-08T04:08:55.973Z,89.56
2019-03-08T04:09:59.107Z,89.85
2019-03-08T04:11:04.793Z,90.43
2019-03-08T04:12:07.417Z,90.51
2019-03-08T04:13:12.803Z,91.72
2019-03-08T04:14:15.470Z,91.07
2019-03-08T04:15:18.167Z,91.10
2019-03-08T04:16:23.928Z,90.62
2019-03-08T04:17:27.220Z,90.47
2019-03-08T04:18:30.334Z,90.92
2019-03-08T04:19:33.040Z,91.58
2019-03-08T04:20:35.669Z,91.29
2019-03-08T04:21:38.302Z,91.29
2019-03-08T04:22:41.131Z,91.20
2019-03-08T04:23:44.132Z,90.66
2019-03-08T04:24:46.796Z,90.85
2019-03-08T04:25:49.865Z,90.05
2019-03-08T04:26:52.547Z,90.05
2019-03-08T04:27:55.670Z,90.60
2019-03-08T04:28:59.471Z,90.67
2019-03-08T04:30:02.784Z,90.83
2019-03-08T04:31:05.486Z,90.52
2019-03-08T04:32:08.249Z,90.42
2019-03-08T04:33:10.986Z,90.55
2019-03-08T04:34:13.703Z,90.74
2019-03-08T04:35:16.343Z,90.74
2019-03-08T04:36:20.444Z,90.44
2019-03-08T04:37:23.079Z,89.69
2019-03-08T04:38:26.154Z,89.62
2019-03-08T04:39:28.941Z,89.67
2019-03-08T04:40:31.595Z,89.22
2019-03-08T04:41:34.219Z,89.93
2019-03-08T04:42:37.672Z,89.93
2019-03-08T04:43:40.413Z,90.75
2019-03-08T04:44:43.166Z,90.75
2019-03-08T04:45:45.981Z,90.46
2019-03-08T04:46:49.112Z,90.05
2019-03-08T04:47:51.842Z,90.03
2019-03-08T04:48:55.070Z,89.84
2019-03-08T04:49:58.240Z,89.18
2019-03-08T04:51:00.959Z,89.56
2019-03-08T04:52:03.595Z,89.98
2019-03-08T04:53:06.294Z,89.42
2019-03-08T04:54:11.873Z,89.60
2019-03-08T04:55:16.747Z,89.85
2019-03-08T04:56:19.489Z,89.85
2019-03-08T04:57:22.205Z,89.54
2019-03-08T04:58:24.833Z,89.25
2019-03-08T04:59:27.517Z,88.50
2019-03-08T05:00:30.176Z,89.45
2019-03-08T05:01:33.154Z,90.46
2019-03-08T05:02:36.312Z,90.21
2019-03-08T05:03:38.907Z,90.21
2019-03-08T05:04:41.930Z,91.20
2019-03-08T05:05:44.661Z,91.11
2019-03-08T05:06:47.316Z,91.27
2019-03-08T05:07:50.395Z,91.29
2019-03-08T05:08:53.126Z,91.72
2019-03-08T05:09:55.759Z,91.22
2019-03-08T05:10:58.569Z,91.22
2019-03-08T05:12:01.256Z,92.50
2019-03-08T05:13:03.956Z,92.97
2019-03-08T05:14:06.969Z,93.50
2019-03-08T05:15:10.076Z,93.50
2019-03-08T05:16:12.839Z,93.80
2019-03-08T05:17:15.483Z,93.63
2019-03-08T05:18:18.225Z,93.64
2019-03-08T05:19:20.956Z,93.51
2019-03-08T05:20:24.195Z,93.51
2019-03-08T05:21:26.933Z,94.74
2019-03-08T05:22:29.564Z,94.31
2019-03-08T05:23:32.632Z,94.65
2019-03-08T05:24:36.454Z,94.37
2019-03-08T05:25:39.541Z,94.39
2019-03-08T05:26:42.451Z,94.39
2019-03-08T05:27:45.515Z,94.23
2019-03-08T05:28:48.215Z,94.84
2019-03-08T05:29:50.880Z,94.84
2019-03-08T05:30:53.575Z,95.28
2019-03-08T05:31:56.219Z,95.10
2019-03-08T05:32:59.379Z,95.40
2019-03-08T05:34:02.090Z,95.20
2019-03-08T05:35:05.149Z,95.36
2019-03-08T05:36:07.803Z,95.28
2019-03-08T05:37:10.501Z,95.29
2019-03-08T05:38:13.235Z,95.13
2019-03-08T05:39:16.216Z,95.13
2019-03-08T05:40:19.181Z,95.26
2019-03-08T05:41:21.846Z,94.88
2019-03-08T05:42:24.472Z,95.56
2019-03-08T05:43:27.275Z,94.59
2019-03-08T05:44:29.993Z,94.43
2019-03-08T05:45:33.200Z,94.74
2019-03-08T05:46:36.199Z,94.74
2019-03-08T05:47:38.826Z,94.90
2019-03-08T05:48:41.895Z,94.30
2019-03-08T05:49:45.092Z,93.55
2019-03-08T05:50:47.825Z,94.24
2019-03-08T05:51:54.227Z,93.77
2019-03-08T05:52:56.844Z,94.68
2019-03-08T05:54:00.018Z,94.77
2019-03-08T05:55:02.699Z,94.78
2019-03-08T05:56:05.326Z,94.12
2019-03-08T05:57:07.984Z,94.53
2019-03-08T05:58:11.319Z,94.62
2019-03-08T05:59:14.032Z,94.89
2019-03-08T06:00:18.243Z,94.79
2019-03-08T06:01:20.881Z,95.55
2019-03-08T06:02:23.678Z,94.61
2019-03-08T06:03:26.383Z,94.61
2019-03-08T06:04:29.558Z,94.86
2019-03-08T06:05:32.279Z,94.74
2019-03-08T06:06:34.942Z,95.10
2019-03-08T06:07:39.204Z,94.88
2019-03-08T06:08:41.944Z,94.73
2019-03-08T06:09:45.039Z,94.89
2019-03-08T06:10:48.633Z,94.89
2019-03-08T06:11:51.408Z,95.02
2019-03-08T06:12:54.089Z,95.71
2019-03-08T06:13:56.717Z,95.05
2019-03-08T06:14:59.374Z,95.05
2019-03-08T06:16:02.128Z,96.11
2019-03-08T06:17:05.114Z,95.78
2019-03-08T06:18:08.187Z,95.76
2019-03-08T06:19:11.013Z,95.82
2019-03-08T06:20:13.652Z,94.46
2019-03-08T06:21:16.792Z,94.00
2019-03-08T06:22:19.860Z,94.43
2019-03-08T06:23:26.439Z,94.80
2019-03-08T06:24:29.695Z,94.60
2019-03-08T06:25:34.796Z,94.60
2019-03-08T06:26:37.551Z,95.58
2019-03-08T06:27:40.299Z,95.58
2019-03-08T06:28:42.951Z,95.04
2019-03-08T06:29:46.005Z,95.34
2019-03-08T06:34:14.199Z,95.04
2019-03-08T06:35:17.002Z,95.04
2019-03-08T06:36:19.977Z,94.63
2019-03-08T06:37:22.623Z,94.63
2019-03-08T06:38:25.910Z,95.63
2019-03-08T06:39:29.102Z,96.08
2019-03-08T06:40:32.309Z,96.08
2019-03-08T06:41:35.077Z,95.15
2019-03-08T06:42:38.338Z,95.29
2019-03-08T06:43:40.964Z,95.46
2019-03-08T06:44:43.642Z,95.38
2019-03-08T06:45:46.473Z,95.08
2019-03-08T06:46:50.140Z,95.08
2019-03-08T06:47:53.671Z,96.22
2019-03-08T06:48:56.887Z,96.22
2019-03-08T06:49:59.677Z,95.67
2019-03-08T06:51:02.323Z,95.67
2019-03-08T06:52:05.588Z,95.73
2019-03-08T06:53:08.348Z,95.73
2019-03-08T06:54:11.098Z,95.77
2019-03-08T06:55:14.069Z,95.84
2019-03-08T06:56:16.940Z,95.84
2019-03-08T06:57:20.451Z,95.35
2019-03-08T06:58:35.817Z,95.71
2019-03-08T06:59:45.685Z,95.92
2019-03-08T07:01:06.092Z,95.66
2019-03-08T07:02:09.223Z,95.34
2019-03-08T07:03:12.323Z,96.11
2019-03-08T07:04:15.305Z,96.11
2019-03-08T07:05:20.984Z,95.08
2019-03-08T07:06:23.729Z,94.76
2019-03-08T07:07:26.834Z,95.35
2019-03-08T07:08:30.453Z,95.35
2019-03-08T07:09:33.550Z,94.04
2019-03-08T07:10:36.245Z,94.04
2019-03-08T07:11:38.985Z,93.72
2019-03-08T07:12:42.228Z,94.03
2019-03-08T07:13:45.399Z,93.74
2019-03-08T07:14:54.271Z,93.74
2019-03-08T07:15:55.371Z,93.48
2019-03-08T07:16:58.150Z,93.48
2019-03-08T07:18:01.818Z,93.92
2019-03-08T07:19:05.023Z,94.58
2019-03-08T07:20:27.684Z,94.28
2019-03-08T07:21:52.482Z,95.39
2019-03-08T07:23:04.343Z,95.20
2019-03-08T07:24:46.515Z,95.43
2019-03-08T07:26:07.862Z,95.43
2019-03-08T07:27:27.936Z,95.17
2019-03-08T07:28:48.066Z,95.49
2019-03-08T07:30:08.985Z,95.59
2019-03-08T07:31:26.779Z,95.89
2019-03-08T07:32:54.837Z,95.83
2019-03-08T07:34:23.793Z,96.15
2019-03-08T07:35:43.649Z,96.56
2019-03-08T07:37:20.858Z,96.55
2019-03-08T07:38:51.767Z,96.61
2019-03-08T07:40:11.458Z,96.44
2019-03-08T07:41:47.872Z,96.44
2019-03-08T07:43:09.341Z,96.67
2019-03-08T07:44:27.037Z,96.48
2019-03-08T07:45:48.565Z,96.76
2019-03-08T07:47:18.407Z,96.76
2019-03-08T07:48:43.117Z,97.26
2019-03-08T07:50:08.224Z,97.06
2019-03-08T07:51:39.265Z,97.03
2019-03-08T07:52:55.327Z,96.54
2019-03-08T07:54:13.441Z,96.43
2019-03-08T07:55:28.288Z,97.27
2019-03-08T07:56:55.699Z,97.27
2019-03-08T07:58:23.277Z,97.47
2019-03-08T07:59:53.217Z,97.60
2019-03-08T08:01:26.590Z,97.60
2019-03-08T08:02:51.215Z,97.31
2019-03-08T08:04:07.143Z,97.31
2019-03-08T08:05:19.588Z,96.91
2019-03-08T08:06:44.699Z,96.91
2019-03-08T08:08:05.513Z,97.57
2019-03-08T08:09:39.051Z,97.06
2019-03-08T08:11:00.641Z,97.06
2019-03-08T08:12:37.558Z,97.44
2019-03-08T08:14:05.241Z,97.12
2019-03-08T08:15:32.553Z,96.49
2019-03-08T08:16:56.927Z,96.56
2019-03-08T08:18:12.042Z,96.56
2019-03-08T08:19:39.348Z,97.12
2019-03-08T08:21:09.745Z,97.12
2019-03-08T08:22:34.151Z,97.13
2019-03-08T08:23:52.350Z,97.19
2019-03-08T08:25:23.746Z,97.19
2019-03-08T08:26:49.099Z,97.02
2019-03-08T08:28:09.408Z,96.60
2019-03-08T08:29:34.877Z,96.61
2019-03-08T08:30:51.923Z,97.30
2019-03-08T08:32:25.299Z,97.12
2019-03-08T08:33:46.869Z,96.87
2019-03-08T08:35:09.217Z,96.93
2019-03-08T08:36:28.717Z,96.93
2019-03-08T08:37:56.061Z,96.42
2019-03-08T08:39:19.186Z,97.16
2019-03-08T08:40:30.513Z,96.16
2019-03-08T08:41:47.911Z,96.39
2019-03-08T08:43:12.458Z,96.73
2019-03-08T08:44:32.784Z,95.67
2019-03-08T08:45:57.746Z,95.48
2019-03-08T08:47:34.409Z,95.48
2019-03-08T08:49:07.630Z,95.43
2019-03-08T08:50:23.851Z,95.49
2019-03-08T08:51:37.938Z,95.49
2019-03-08T08:52:56.782Z,94.68
2019-03-08T08:54:15.814Z,95.24
2019-03-08T08:55:35.904Z,95.07
2019-03-08T08:56:57.872Z,95.07
2019-03-08T08:58:31.321Z,95.28
2019-03-08T08:59:51.556Z,95.09
2019-03-08T09:01:11.613Z,95.12
2019-03-08T09:02:34.021Z,95.12
2019-03-08T09:04:07.525Z,95.18
2019-03-08T09:05:29.041Z,95.19
2019-03-08T09:06:50.633Z,94.70
2019-03-08T09:08:18.315Z,95.29
2019-03-08T09:09:55.136Z,95.29
2019-03-08T09:11:02.659Z,93.44
2019-03-08T09:12:22.025Z,93.33
2019-03-08T09:13:42.056Z,93.89
2019-03-08T09:14:53.730Z,92.63
2019-03-08T09:16:27.409Z,92.63
2019-03-08T09:17:50.567Z,93.69
2019-03-08T09:19:15.205Z,93.08
2019-03-08T09:20:40.986Z,93.42
2019-03-08T09:22:17.524Z,92.59
2019-03-08T09:23:29.041Z,92.38
2019-03-08T09:24:50.575Z,93.92
2019-03-08T09:25:59.522Z,94.00
2019-03-08T09:27:21.124Z,94.19
2019-03-08T09:28:42.607Z,94.19
2019-03-08T09:30:02.790Z,93.20
2019-03-08T09:31:16.157Z,93.52
2019-03-08T09:32:43.365Z,92.67
2019-03-08T09:34:05.030Z,92.89
2019-03-08T09:35:24.117Z,93.46
2019-03-08T09:36:34.542Z,93.09
2019-03-08T09:37:58.968Z,93.68
2019-03-08T09:39:19.737Z,93.68
2019-03-08T09:40:40.585Z,94.00
2019-03-08T09:42:11.433Z,94.33
2019-03-08T09:43:42.707Z,92.97
2019-03-08T09:45:16.154Z,92.97
2019-03-08T09:46:40.604Z,92.73
2019-03-08T09:47:59.035Z,93.57
2019-03-08T09:49:19.338Z,93.67
2019-03-08T09:50:41.217Z,93.71
2019-03-08T09:52:08.584Z,94.05
2019-03-08T09:53:45.778Z,91.71
2019-03-08T09:55:07.389Z,91.56
2019-03-08T09:56:32.025Z,91.50
2019-03-08T09:57:56.395Z,91.50
2019-03-08T09:59:24.232Z,91.83
2019-03-08T10:00:44.255Z,91.10
2019-03-08T10:01:57.401Z,91.10
2019-03-08T10:03:28.256Z,91.37
2019-03-08T10:04:53.318Z,90.78
2019-03-08T10:06:13.582Z,91.58
2019-03-08T10:07:33.096Z,91.55
2019-03-08T10:08:47.363Z,91.52
2019-03-08T10:10:21.399Z,90.36
2019-03-08T10:11:41.699Z,91.47
2019-03-08T10:12:51.936Z,91.33
2019-03-08T10:14:21.470Z,89.14
2019-03-08T10:15:49.590Z,88.92
2019-03-08T10:17:07.044Z,88.79
2019-03-08T10:18:40.251Z,88.87
2019-03-08T10:20:07.759Z,87.68
2019-03-08T10:21:17.290Z,88.11
2019-03-08T10:22:35.184Z,87.61
2019-03-08T10:23:47.838Z,87.31
2019-03-08T10:25:11.290Z,87.61
2019-03-08T10:26:36.196Z,87.61
2019-03-08T10:28:05.567Z,83.55
2019-03-08T10:29:34.954Z,83.55
2019-03-08T10:31:08.548Z,80.63
2019-03-08T10:32:47.076Z,78.19
2019-03-08T10:34:06.723Z,78.43
2019-03-08T10:35:26.532Z,78.43
2019-03-08T10:36:51.062Z,77.48
2019-03-08T10:38:00.811Z,74.43
2019-03-08T10:39:31.686Z,74.43
2019-03-08T10:40:58.848Z,74.40
2019-03-08T10:42:22.108Z,74.40
2019-03-08T10:43:43.225Z,74.45
2019-03-08T10:44:59.500Z,74.03
2019-03-08T10:46:29.448Z,72.75
2019-03-08T10:47:56.273Z,72.43
2019-03-08T10:49:27.155Z,73.57
2019-03-08T10:50:51.687Z,71.63
2019-03-08T10:52:17.339Z,69.56
2019-03-08T10:53:25.829Z,71.27
2019-03-08T10:55:05.676Z,72.45
2019-03-08T10:56:36.160Z,72.86
2019-03-08T10:57:53.184Z,72.86
2019-03-08T10:59:15.068Z,72.59
2019-03-08T11:00:29.659Z,69.13
2019-03-08T11:01:38.413Z,68.30
2019-03-08T11:02:59.852Z,68.30
2019-03-08T11:04:38.954Z,70.96
2019-03-08T11:05:56.698Z,71.56
2019-03-08T11:07:17.249Z,70.36
2019-03-08T11:08:53.845Z,70.00
2019-03-08T11:10:18.857Z,71.15
2019-03-08T11:11:39.380Z,72.88
2019-03-08T11:13:17.531Z,74.77
2019-03-08T11:14:39.113Z,75.54
2019-03-08T11:16:11.894Z,75.37
2019-03-08T11:17:32.824Z,74.21
2019-03-08T11:18:43.095Z,74.74
2019-03-08T11:20:06.095Z,74.12
2019-03-08T11:21:21.955Z,73.48
2019-03-08T11:22:44.869Z,73.96
2019-03-08T11:24:05.154Z,74.88
2019-03-08T11:25:34.566Z,74.88
2019-03-08T11:26:54.741Z,74.59
2019-03-08T11:28:25.586Z,74.59
2019-03-08T11:29:56.586Z,74.19
2019-03-08T11:43:49.604Z,77.11
2019-03-08T11:45:28.638Z,75.31
2019-03-08T11:47:02.279Z,74.57
2019-03-08T11:48:22.871Z,75.48
2019-03-08T11:49:48.286Z,76.74
2019-03-08T11:51:08.472Z,76.74
2019-03-08T11:52:35.996Z,76.74
2019-03-08T11:53:56.662Z,76.48
2019-03-08T11:55:33.310Z,76.19
2019-03-08T11:57:18.444Z,76.92
2019-03-08T11:58:40.099Z,76.76
2019-03-08T12:00:10.916Z,76.40
2019-03-08T12:01:47.488Z,76.40
2019-03-08T12:03:12.313Z,72.53
2019-03-08T12:04:43.086Z,72.00
2019-03-08T12:06:14.496Z,72.61
2019-03-08T12:07:34.630Z,72.61
2019-03-08T12:08:54.050Z,72.29
2019-03-08T12:10:05.228Z,100.00
2019-03-08T12:11:28.969Z,70.37
2019-03-08T12:12:43.437Z,70.37
2019-03-08T12:14:20.152Z,71.76
2019-03-08T12:15:40.561Z,54.26
2019-03-08T12:17:13.261Z,70.21
2019-03-08T12:18:43.767Z,67.30
2019-03-08T12:20:14.367Z,67.30
2019-03-08T12:21:35.889Z,66.84
2019-03-08T12:22:56.243Z,66.84
2019-03-08T12:24:21.082Z,63.95
2019-03-08T12:25:45.722Z,65.67
2019-03-08T12:27:09.663Z,62.30
2019-03-08T12:28:32.096Z,62.30
2019-03-08T12:31:29.173Z,61.71
2019-03-08T12:32:46.492Z,59.76
2019-03-08T12:33:59.639Z,58.97
2019-03-08T12:35:21.841Z,58.10
2019-03-08T12:36:43.295Z,58.38
2019-03-08T12:38:08.305Z,60.85
2019-03-08T12:39:32.270Z,59.04
2019-03-08T12:41:11.159Z,60.28
2019-03-08T12:42:38.284Z,57.36
2019-03-08T12:43:58.081Z,59.51
2019-03-08T12:45:29.387Z,60.25
2019-03-08T12:46:59.009Z,60.53
2019-03-08T12:48:23.706Z,61.07
2019-03-08T12:49:46.238Z,58.62
2019-03-08T12:51:23.395Z,57.76
2019-03-08T12:52:51.450Z,56.83
2019-03-08T12:54:16.059Z,56.83
2019-03-08T12:55:46.408Z,55.19
2019-03-08T12:57:11.308Z,54.04
2019-03-08T12:58:46.274Z,54.47
2019-03-08T13:00:07.761Z,55.00
2019-03-08T13:01:32.504Z,53.44
2019-03-08T13:02:52.107Z,57.05
2019-03-08T13:04:14.901Z,55.93
2019-03-08T13:05:42.219Z,57.48
2019-03-08T13:07:02.590Z,57.48
2019-03-08T13:08:30.567Z,59.24
2019-03-08T13:09:41.959Z,59.24
2019-03-08T13:10:44.755Z,59.14
2019-03-08T13:11:47.576Z,60.22
2019-03-08T13:12:53.158Z,59.52
2019-03-08T13:13:56.326Z,60.59
2019-03-08T13:15:00.771Z,60.48
2019-03-08T13:16:03.446Z,60.79
2019-03-08T13:17:10.153Z,60.25
2019-03-08T13:18:13.630Z,60.25
2019-03-08T13:19:16.571Z,61.46
2019-03-08T13:20:19.270Z,61.35
2019-03-08T13:21:22.284Z,62.19
2019-03-08T13:22:25.054Z,61.92
2019-03-08T13:23:27.958Z,62.00
2019-03-08T13:24:30.665Z,62.52
2019-03-08T13:25:33.644Z,63.18
2019-03-08T13:26:36.608Z,63.18
2019-03-08T13:27:39.890Z,63.72
2019-03-08T13:28:45.042Z,63.72
2019-03-08T13:29:50.362Z,64.69
2019-03-08T13:30:56.121Z,63.87
2019-03-08T13:32:00.293Z,64.50
2019-03-08T13:33:17.377Z,64.50
2019-03-08T13:34:18.263Z,65.23
2019-03-08T13:35:22.570Z,65.23
2019-03-08T13:36:27.984Z,63.60
2019-03-08T13:37:30.795Z,63.60
2019-03-08T13:38:33.947Z,63.20
2019-03-08T13:39:42.333Z,63.20
2019-03-08T13:40:45.714Z,63.44
2019-03-08T13:41:48.480Z,62.50
2019-03-08T13:42:51.910Z,62.35
2019-03-08T13:43:57.094Z,62.48
2019-03-08T13:45:03.013Z,63.96
2019-03-08T13:46:05.683Z,62.39
2019-03-08T13:47:08.515Z,61.56
2019-03-08T13:48:11.280Z,60.72
2019-03-08T13:49:14.449Z,60.54
2019-03-08T13:50:17.995Z,61.17
2019-03-08T13:51:23.031Z,61.03
2019-03-08T13:52:26.082Z,60.07
2019-03-08T13:53:28.979Z,61.65
2019-03-08T13:54:31.946Z,62.02
2019-03-08T13:55:34.627Z,62.02
2019-03-08T13:56:37.482Z,60.40
2019-03-08T13:57:43.985Z,59.70
2019-03-08T13:58:48.138Z,59.45
2019-03-08T13:59:52.152Z,58.97
2019-03-08T14:00:54.887Z,59.34
2019-03-08T14:01:58.249Z,59.34
2019-03-08T14:03:01.044Z,57.22
2019-03-08T14:04:04.677Z,59.08
2019-03-08T14:05:07.557Z,60.52
2019-03-08T14:06:10.848Z,60.14
2019-03-08T14:07:13.685Z,60.08
2019-03-08T14:08:17.331Z,60.08
2019-03-08T14:09:25.510Z,59.95
2019-03-08T14:10:29.738Z,59.40
2019-03-08T14:11:35.125Z,60.32
2019-03-08T14:12:37.956Z,60.32
2019-03-08T14:13:40.857Z,61.74
2019-03-08T14:14:43.656Z,62.30
2019-03-08T14:15:51.029Z,62.30
2019-03-08T14:16:54.279Z,61.50
2019-03-08T14:17:57.610Z,61.58
2019-03-08T14:19:08.019Z,60.80
2019-03-08T14:20:10.756Z,60.08
2019-03-08T14:21:14.223Z,60.08
2019-03-08T14:22:17.712Z,61.08
2019-03-08T14:23:22.498Z,61.39
2019-03-08T14:24:29.143Z,63.29
2019-03-08T14:25:31.992Z,64.67
2019-03-08T14:26:34.794Z,63.41
2019-03-08T14:27:38.079Z,63.88
2019-03-08T14:28:41.288Z,63.89
2019-03-08T14:29:44.134Z,63.70
2019-03-08T14:30:58.015Z,63.42
2019-03-08T14:32:04.846Z,64.73
2019-03-08T14:33:10.596Z,64.73
2019-03-08T14:34:16.708Z,63.20
2019-03-08T14:35:18.505Z,63.34
2019-03-08T14:36:21.289Z,62.86
2019-03-08T14:37:24.247Z,62.86
2019-03-08T14:38:32.883Z,62.04
2019-03-08T14:39:40.311Z,63.17
2019-03-08T14:40:59.043Z,63.15
2019-03-08T14:42:28.794Z,63.15
2019-03-08T14:43:54.837Z,62.82
2019-03-08T14:45:20.054Z,62.82
2019-03-08T14:46:31.727Z,63.81
2019-03-08T14:47:46.170Z,64.43
2019-03-08T14:48:50.505Z,62.89
2019-03-08T14:49:59.283Z,62.89
2019-03-08T14:51:03.269Z,63.78
2019-03-08T14:52:08.867Z,63.63
2019-03-08T14:53:15.108Z,63.63
2019-03-08T14:54:17.974Z,63.74
2019-03-08T14:55:22.739Z,64.83
2019-03-08T14:56:26.520Z,64.83
2019-03-08T14:57:29.569Z,64.12
2019-03-08T14:58:36.734Z,64.10
2019-03-08T14:59:41.025Z,64.10
2019-03-08T15:00:44.129Z,63.74
2019-03-08T15:01:53.378Z,63.04
2019-03-08T15:03:01.208Z,63.64
2019-03-08T15:04:04.142Z,63.76
2019-03-08T15:05:11.064Z,63.22
2019-03-08T15:06:13.282Z,64.23
2019-03-08T15:07:16.067Z,64.17
2019-03-08T15:08:22.138Z,64.30
2019-03-08T15:09:29.069Z,63.79
2019-03-08T15:10:38.779Z,63.80
2019-03-08T15:11:34.304Z,64.15
2019-03-08T15:12:48.345Z,64.15
2019-03-08T15:13:45.155Z,64.41
2019-03-08T15:14:50.060Z,64.72
2019-03-08T15:15:52.607Z,63.76
2019-03-08T15:17:08.845Z,63.79
2019-03-08T15:18:06.351Z,63.24
2019-03-08T15:19:12.101Z,63.45
2019-03-08T15:20:15.609Z,63.27